createdAt,value
2019-04-06T00:04:23.025Z,6.79
2019-04-06T00:09:28.248Z,6.79
2019-04-06T00:14:33.749Z,6.76
2019-04-06T00:19:38.956Z,6.71
2019-04-06T00:24:44.141Z,6.69
2019-04-06T00:29:49.770Z,6.69
2019-04-06T00:34:54.931Z,6.74
2019-04-06T00:40:00.101Z,6.78
2019-04-06T00:45:05.649Z,6.75
2019-04-06T00:50:11.308Z,6.75
2019-04-06T00:55:16.859Z,6.69
2019-04-06T01:00:22.944Z,6.72
2019-04-06T01:05:28.546Z,6.77
2019-04-06T01:10:33.719Z,6.82
2019-04-06T01:15:38.885Z,6.84
2019-04-06T01:20:44.943Z,6.80
2019-04-06T01:25:50.176Z,6.76
2019-04-06T01:30:55.359Z,6.67
2019-04-06T01:36:00.965Z,6.70
2019-04-06T01:41:07.198Z,6.60
2019-04-06T01:46:12.352Z,6.55
2019-04-06T01:51:17.519Z,6.53
2019-04-06T01:56:22.765Z,6.56
2019-04-06T02:01:47.244Z,6.52
2019-04-06T02:06:52.419Z,6.49
2019-04-06T02:11:58.440Z,6.49
2019-04-06T02:17:04.008Z,6.53
2019-04-06T02:22:09.159Z,6.50
2019-04-06T02:27:14.333Z,6.48
2019-04-06T02:32:44.567Z,6.45
2019-04-06T02:38:10.509Z,6.44
2019-04-06T02:43:18.742Z,6.40
2019-04-06T02:48:24.236Z,6.42
2019-04-06T02:53:29.403Z,6.43
2019-04-06T02:58:34.701Z,6.38
2019-04-06T03:03:39.902Z,6.33
2019-04-06T03:08:45.048Z,6.37
2019-04-06T03:13:50.249Z,6.31
2019-04-06T03:18:55.587Z,6.29
2019-04-06T03:24:00.791Z,6.28
2019-04-06T03:29:05.980Z,6.28
2019-04-06T03:34:12.295Z,6.29
2019-04-06T03:39:18.162Z,6.20
2019-04-06T03:44:23.465Z,6.26
2019-04-06T03:49:28.674Z,6.19
2019-04-06T03:54:34.230Z,6.10
2019-04-06T03:59:39.619Z,6.12
2019-04-06T04:04:45.401Z,6.06
2019-04-06T04:09:50.601Z,6.06
2019-04-06T04:14:56.232Z,6.10
2019-04-06T04:20:02.244Z,6.11
2019-04-06T04:25:08.140Z,6.12
2019-04-06T04:30:15.376Z,6.14
2019-04-06T04:35:21.792Z,6.12
2019-04-06T04:40:28.089Z,6.18
2019-04-06T04:45:34.531Z,6.13
2019-04-06T04:50:42.002Z,6.05
2019-04-06T04:55:48.859Z,5.97
2019-04-06T05:00:55.348Z,5.99
2019-04-06T05:06:01.898Z,6.09
2019-04-06T05:11:09.063Z,6.19
2019-04-06T05:16:15.551Z,6.26
2019-04-06T05:21:21.140Z,6.33
2019-04-06T05:26:36.620Z,6.24
2019-04-06T05:31:33.411Z,6.17
2019-04-06T05:36:39.588Z,6.22
2019-04-06T05:41:44.825Z,6.20
2019-04-06T05:46:50.021Z,6.22
2019-04-06T05:51:55.501Z,6.41
2019-04-06T05:57:02.176Z,6.46
2019-04-06T06:02:08.009Z,6.36
2019-04-06T06:07:14.532Z,6.39
2019-04-06T06:12:20.183Z,6.54
2019-04-06T06:17:25.582Z,6.63
2019-04-06T06:22:30.813Z,6.74
2019-04-06T06:27:36.146Z,6.65
2019-04-06T06:32:41.708Z,6.82
2019-04-06T06:37:47.419Z,6.86
2019-04-06T06:42:53.213Z,6.89
2019-04-06T06:47:58.910Z,6.95
2019-04-06T06:53:04.346Z,7.02
2019-04-06T06:58:09.907Z,7.10
2019-04-06T07:03:15.111Z,7.17
2019-04-06T07:08:20.656Z,7.04
2019-04-06T07:13:25.951Z,7.44
2019-04-06T07:18:31.274Z,7.74
2019-04-06T07:23:37.349Z,7.77
2019-04-06T07:28:44.002Z,7.80
2019-04-06T07:33:49.556Z,8.04
2019-04-06T07:38:55.015Z,8.24
2019-04-06T07:44:00.318Z,8.41
2019-04-06T07:49:09.335Z,8.43
2019-04-06T07:54:13.818Z,8.75
2019-04-06T07:59:19.362Z,8.81
2019-04-06T08:04:25.482Z,8.91
2019-04-06T08:09:30.671Z,8.84
2019-04-06T08:14:35.946Z,8.71
2019-04-06T08:19:41.463Z,8.83
2019-04-06T08:24:46.789Z,9.02
2019-04-06T08:29:52.504Z,9.17
2019-04-06T08:34:57.886Z,9.12
2019-04-06T08:40:03.442Z,9.14
2019-04-06T08:45:09.047Z,9.45
2019-04-06T08:50:14.729Z,9.55
2019-04-06T08:55:20.310Z,9.75
2019-04-06T09:00:27.312Z,9.96
2019-04-06T09:05:32.634Z,10.04
2019-04-06T09:10:37.899Z,10.56
2019-04-06T09:15:43.348Z,10.65
2019-04-06T09:20:49.957Z,10.85
2019-04-06T09:25:55.417Z,11.30
2019-04-06T09:31:01.102Z,11.57
2019-04-06T09:36:07.274Z,11.73
2019-04-06T09:41:13.231Z,12.02
2019-04-06T09:46:29.530Z,12.30
2019-04-06T09:52:04.655Z,12.60
2019-04-06T09:57:28.448Z,12.92
2019-04-06T10:02:44.997Z,13.14
2019-04-06T10:08:02.748Z,13.28
2019-04-06T10:13:25.630Z,13.45
2019-04-06T10:18:53.770Z,13.58
2019-04-06T10:24:26.927Z,13.71
2019-04-06T10:29:54.257Z,13.94
2019-04-06T10:35:11.171Z,13.88
2019-04-06T10:40:45.130Z,14.17
2019-04-06T10:46:10.078Z,14.33
2019-04-06T10:51:34.794Z,14.51
2019-04-06T10:56:58.208Z,14.59
2019-04-06T11:02:25.688Z,14.77
2019-04-06T11:07:39.960Z,14.89
2019-04-06T11:13:05.844Z,14.92
2019-04-06T11:18:42.818Z,15.02
2019-04-06T11:24:19.628Z,15.40
2019-04-06T11:29:43.919Z,15.70
2019-04-06T11:35:16.035Z,15.88
2019-04-06T11:40:39.741Z,16.04
2019-04-06T11:45:56.498Z,16.09
2019-04-06T11:51:15.567Z,16.20
2019-04-06T11:56:43.096Z,16.47
2019-04-06T12:02:07.661Z,16.55
2019-04-06T12:07:31.891Z,16.71
2019-04-06T12:12:46.020Z,16.91
2019-04-06T12:18:11.562Z,16.98
2019-04-06T12:23:27.397Z,17.15
2019-04-06T12:28:41.780Z,17.38
2019-04-06T12:33:59.215Z,17.43
2019-04-06T12:39:28.400Z,17.63
2019-04-06T12:44:52.155Z,17.89
2019-04-06T12:50:20.742Z,18.15
2019-04-06T12:55:45.061Z,18.13
2019-04-06T13:01:19.161Z,18.34
2019-04-06T13:06:48.835Z,18.45
2019-04-06T13:12:15.895Z,18.58
2019-04-06T13:17:27.841Z,18.73
2019-04-06T13:22:52.863Z,18.85
2019-04-06T13:28:14.428Z,19.12
2019-04-06T13:33:48.326Z,19.14
2019-04-06T13:39:00.652Z,19.06
2019-04-06T13:44:13.559Z,19.42
2019-04-06T13:49:41.347Z,19.30
2019-04-06T13:55:13.268Z,19.43
2019-04-06T14:00:31.713Z,19.69
2019-04-06T14:05:56.048Z,19.58
2019-04-06T14:11:18.952Z,19.71
2019-04-06T14:16:49.551Z,19.97
2019-04-06T14:22:13.907Z,20.12
2019-04-06T14:27:39.052Z,20.16
2019-04-06T14:33:12.463Z,20.14
2019-04-06T14:38:36.756Z,20.33
2019-04-06T14:43:49.967Z,20.10
2019-04-06T14:49:28.532Z,20.12
2019-04-06T14:54:43.613Z,20.33
2019-04-06T15:00:01.407Z,20.28
2019-04-06T15:05:26.799Z,20.34
2019-04-06T15:11:09.413Z,20.38
2019-04-06T15:16:20.133Z,20.38
2019-04-06T15:21:43.436Z,20.26
2019-04-06T15:27:14.064Z,19.38
2019-04-06T15:32:44.646Z,18.97
2019-04-06T15:37:58.968Z,18.87
2019-04-06T15:43:20.126Z,18.97
2019-04-06T15:48:49.142Z,18.97
2019-04-06T15:54:12.397Z,18.78
2019-04-06T15:59:28.016Z,18.44
2019-04-06T16:04:42.502Z,18.59
2019-04-06T16:10:07.622Z,18.55
2019-04-06T16:15:23.730Z,18.57
2019-04-06T16:20:45.059Z,18.35
2019-04-06T16:26:04.977Z,18.23
2019-04-06T16:31:32.036Z,18.12
2019-04-06T16:37:02.490Z,17.92
2019-04-06T16:42:29.493Z,17.80
2019-04-06T16:47:56.384Z,17.72
2019-04-06T16:53:20.294Z,17.60
2019-04-06T16:58:42.757Z,17.40
2019-04-06T17:03:57.824Z,17.24
2019-04-06T17:09:23.200Z,17.16
2019-04-06T17:14:52.886Z,17.06
2019-04-06T17:20:11.676Z,16.93
2019-04-06T17:25:54.639Z,16.91
2019-04-06T17:31:24.658Z,16.93
2019-04-06T17:36:41.531Z,16.85
2019-04-06T17:42:09.879Z,16.81
2019-04-06T17:47:33.658Z,16.77
2019-04-06T17:52:56.658Z,16.64
2019-04-06T17:58:20.962Z,16.47
2019-04-06T18:03:40.723Z,16.27
2019-04-06T18:09:05.839Z,16.10
2019-04-06T18:14:11.757Z,16.04
2019-04-06T18:19:17.237Z,16.03
2019-04-06T18:24:23.415Z,15.95
2019-04-06T18:29:28.703Z,15.91
2019-04-06T18:34:33.996Z,15.82
2019-04-06T18:39:39.622Z,15.76
2019-04-06T18:44:44.899Z,15.63
2019-04-06T18:49:50.308Z,15.51
2019-04-06T18:54:55.576Z,15.38
2019-04-06T19:00:00.906Z,15.27
2019-04-06T19:05:07.803Z,15.17
2019-04-06T19:10:13.889Z,15.11
2019-04-06T19:15:19.156Z,15.03
2019-04-06T19:20:25.025Z,14.87
2019-04-06T19:25:30.738Z,14.77
2019-04-06T19:30:36.322Z,14.61
2019-04-06T19:35:41.883Z,14.45
2019-04-06T19:40:47.304Z,14.35
2019-04-06T19:45:53.146Z,14.32
2019-04-06T19:50:58.973Z,14.22
2019-04-06T19:56:04.728Z,14.04
2019-04-06T20:01:10.467Z,13.94
2019-04-06T20:06:16.672Z,13.90
2019-04-06T20:11:22.820Z,13.89
2019-04-06T20:16:28.412Z,13.69
2019-04-06T20:21:34.106Z,13.55
2019-04-06T20:26:40.174Z,13.34
2019-04-06T20:31:45.465Z,13.17
2019-04-06T20:36:51.544Z,13.00
2019-04-06T20:41:57.502Z,12.81
2019-04-06T20:47:04.167Z,12.64
2019-04-06T20:52:09.690Z,12.48
2019-04-06T20:57:16.542Z,12.44
2019-04-06T21:02:22.652Z,12.36
2019-04-06T21:07:28.542Z,12.29
2019-04-06T21:12:34.338Z,12.20
2019-04-06T21:17:39.862Z,12.12
2019-04-06T21:22:45.368Z,12.00
2019-04-06T21:27:51.394Z,11.90
2019-04-06T21:32:57.861Z,11.78
2019-04-06T21:38:03.943Z,11.66
2019-04-06T21:43:10.008Z,11.54
2019-04-06T21:48:16.027Z,11.45
2019-04-06T21:53:21.538Z,11.37
2019-04-06T21:58:27.165Z,11.29
2019-04-06T22:03:32.741Z,11.23
2019-04-06T22:08:38.522Z,11.16
2019-04-06T22:13:44.264Z,11.09
2019-04-06T22:18:49.825Z,11.04
2019-04-06T22:23:56.623Z,11.05
2019-04-06T22:29:02.685Z,11.00
2019-04-06T22:34:08.154Z,11.01
2019-04-06T22:39:14.597Z,10.92
2019-04-06T22:44:19.865Z,10.85
2019-04-06T22:49:25.252Z,10.86
2019-04-06T22:54:30.537Z,10.82
2019-04-06T22:59:36.723Z,10.83
2019-04-06T23:04:55.159Z,10.75
2019-04-06T23:10:01.063Z,10.67
2019-04-06T23:15:07.159Z,10.53
2019-04-06T23:20:12.431Z,10.37
2019-04-06T23:25:18.696Z,10.35
2019-04-06T23:30:24.883Z,10.30
2019-04-06T23:35:31.554Z,10.24
2019-04-06T23:40:36.826Z,10.19
2019-04-06T23:45:42.542Z,9.94
2019-04-06T23:50:48.358Z,9.75
2019-04-06T23:55:54.098Z,9.55
